createdAt,value
2022-11-29T00:02:13.064Z,200.20
2022-11-29T00:05:01.113Z,194.23
2022-11-29T00:07:49.408Z,203.10
2022-11-29T00:10:37.915Z,197.40
2022-11-29T00:13:25.880Z,218.07
2022-11-29T00:16:14.700Z,191.20
2022-11-29T00:19:04.473Z,198.73
2022-11-29T00:21:52.472Z,193.33
2022-11-29T00:24:42.232Z,194.90
2022-11-29T00:27:30.652Z,203.10
2022-11-29T00:30:18.809Z,196.20
2022-11-29T00:33:06.900Z,194.23
2022-11-29T00:35:56.467Z,200.27
2022-11-29T00:38:45.015Z,196.87
2022-11-29T00:41:33.049Z,192.93
2022-11-29T00:44:21.193Z,204.43
2022-11-29T00:47:09.289Z,203.03
2022-11-29T00:49:57.320Z,219.23
2022-11-29T00:52:46.679Z,196.03
2022-11-29T00:55:34.692Z,184.27
2022-11-29T00:58:23.081Z,194.60
2022-11-29T01:01:11.905Z,210.80
2022-11-29T01:04:01.428Z,202.77
2022-11-29T01:06:51.762Z,201.93
2022-11-29T01:09:41.325Z,199.20
2022-11-29T01:12:29.574Z,191.23
2022-11-29T01:15:17.718Z,187.10
2022-11-29T01:18:05.748Z,201.37
2022-11-29T01:20:58.130Z,193.53
2022-11-29T01:23:47.174Z,184.87
2022-11-29T01:26:36.546Z,194.27
2022-11-29T01:29:24.615Z,183.70
2022-11-29T01:32:13.314Z,190.40
2022-11-29T01:35:01.372Z,209.03
2022-11-29T01:37:49.376Z,177.67
2022-11-29T01:40:37.538Z,202.73
2022-11-29T01:43:27.091Z,196.17
2022-11-29T01:46:15.109Z,190.93
2022-11-29T01:49:07.240Z,201.10
2022-11-29T01:51:59.804Z,179.93
2022-11-29T01:54:49.687Z,203.17
2022-11-29T01:57:41.302Z,194.40
2022-11-29T02:00:30.787Z,184.30
2022-11-29T02:03:19.532Z,193.80
2022-11-29T02:06:08.740Z,186.40
2022-11-29T02:08:56.910Z,194.73
2022-11-29T02:12:05.125Z,210.03
2022-11-29T02:15:19.679Z,185.10
2022-11-29T02:18:14.593Z,186.53
2022-11-29T02:21:21.461Z,198.17
2022-11-29T02:24:38.036Z,182.40
2022-11-29T02:27:59.515Z,174.47
2022-11-29T02:31:35.177Z,186.13
2022-11-29T02:34:54.900Z,186.80
2022-11-29T02:38:00.199Z,178.50
2022-11-29T02:41:06.024Z,193.17
2022-11-29T02:44:12.380Z,166.23
2022-11-29T02:47:13.546Z,188.10
2022-11-29T02:50:18.470Z,178.17
2022-11-29T02:53:14.224Z,189.57
2022-11-29T02:56:14.557Z,188.10
2022-11-29T02:59:10.416Z,185.63
2022-11-29T03:02:05.805Z,198.30
2022-11-29T03:05:02.506Z,203.77
2022-11-29T03:07:59.642Z,200.07
2022-11-29T03:11:00.413Z,194.43
2022-11-29T03:13:57.143Z,185.57
2022-11-29T03:16:52.337Z,193.43
2022-11-29T03:20:00.784Z,187.47
2022-11-29T03:23:03.204Z,186.97
2022-11-29T03:25:56.519Z,201.47
2022-11-29T03:28:50.762Z,199.77
2022-11-29T03:31:45.931Z,191.63
2022-11-29T03:34:51.740Z,194.87
2022-11-29T03:37:49.582Z,198.47
2022-11-29T03:40:48.617Z,198.33
2022-11-29T03:43:44.208Z,204.70
2022-11-29T03:46:38.918Z,184.73
2022-11-29T03:49:34.054Z,197.80
2022-11-29T03:52:27.722Z,199.27
2022-11-29T03:55:32.549Z,198.17
2022-11-29T03:58:37.403Z,187.77
2022-11-29T04:02:21.140Z,209.90
2022-11-29T04:05:32.388Z,189.03
2022-11-29T04:09:00.916Z,192.23
2022-11-29T04:12:07.128Z,196.23
2022-11-29T04:15:46.073Z,183.53
2022-11-29T04:19:05.471Z,169.73
2022-11-29T04:22:20.149Z,185.27
2022-11-29T04:25:35.760Z,185.93
2022-11-29T04:28:59.327Z,186.00
2022-11-29T04:32:09.323Z,188.83
2022-11-29T04:35:15.963Z,190.93
2022-11-29T04:38:20.793Z,187.10
2022-11-29T04:41:24.692Z,204.70
2022-11-29T04:44:39.143Z,203.00
2022-11-29T04:47:43.238Z,211.40
2022-11-29T04:50:49.825Z,188.47
2022-11-29T04:53:50.427Z,198.47
2022-11-29T04:56:43.806Z,213.33
2022-11-29T04:59:44.158Z,185.37
2022-11-29T05:02:37.980Z,197.23
2022-11-29T05:05:37.253Z,189.23
2022-11-29T05:08:35.759Z,207.77
2022-11-29T05:11:33.611Z,194.37
2022-11-29T05:14:32.394Z,204.40
2022-11-29T05:17:31.675Z,204.70
2022-11-29T05:20:30.057Z,191.50
2022-11-29T05:23:40.899Z,206.67
2022-11-29T05:26:33.353Z,193.57
2022-11-29T05:29:31.034Z,191.07
2022-11-29T05:32:29.514Z,210.10
2022-11-29T05:35:52.473Z,187.30
2022-11-29T05:38:56.487Z,207.50
2022-11-29T05:41:59.395Z,193.40
2022-11-29T05:44:54.638Z,195.87
2022-11-29T05:47:51.240Z,194.47
2022-11-29T05:50:44.197Z,199.97
2022-11-29T05:53:41.162Z,195.43
2022-11-29T05:56:41.641Z,187.40
2022-11-29T05:59:31.214Z,197.43
2022-11-29T06:02:33.704Z,200.67
2022-11-29T06:05:30.032Z,193.30
2022-11-29T06:08:24.600Z,204.77
2022-11-29T06:11:17.083Z,193.13
2022-11-29T06:14:13.640Z,202.83
2022-11-29T06:17:25.466Z,187.90
2022-11-29T06:20:32.920Z,197.47
2022-11-29T06:23:38.097Z,201.87
2022-11-29T06:26:40.365Z,207.67
2022-11-29T06:29:36.687Z,194.60
2022-11-29T06:32:36.818Z,192.30
2022-11-29T06:35:37.349Z,192.53
2022-11-29T06:38:28.485Z,198.03
2022-11-29T06:41:20.416Z,187.03
2022-11-29T06:44:09.201Z,186.07
2022-11-29T06:47:04.760Z,206.57
2022-11-29T06:49:58.086Z,203.30
2022-11-29T06:52:58.302Z,189.33
2022-11-29T06:55:54.887Z,214.07
2022-11-29T06:58:51.846Z,181.97
2022-11-29T07:01:46.571Z,209.00
2022-11-29T07:04:33.210Z,223.13
2022-11-29T07:07:01.449Z,198.90
2022-11-29T07:09:33.190Z,209.77
2022-11-29T07:12:01.462Z,201.70
2022-11-29T07:14:29.758Z,203.03
2022-11-29T07:17:07.617Z,223.57
2022-11-29T07:19:45.998Z,208.20
2022-11-29T07:22:32.672Z,199.13
2022-11-29T07:25:04.784Z,210.30
2022-11-29T07:27:42.364Z,202.37
2022-11-29T07:30:15.456Z,214.07
2022-11-29T07:32:59.895Z,218.90
2022-11-29T07:35:37.044Z,203.43
2022-11-29T07:38:12.530Z,197.23
2022-11-29T07:40:46.799Z,203.90
2022-11-29T07:43:24.877Z,202.10
2022-11-29T07:45:53.920Z,212.70
2022-11-29T07:48:21.638Z,203.83
2022-11-29T07:50:50.799Z,216.17
2022-11-29T07:53:20.524Z,213.60
2022-11-29T07:55:49.503Z,212.87
2022-11-29T07:58:18.657Z,212.20
2022-11-29T08:00:47.418Z,213.80
2022-11-29T08:03:15.158Z,225.97
2022-11-29T08:05:47.658Z,218.20
2022-11-29T08:08:17.251Z,218.37
2022-11-29T08:10:45.051Z,222.57
2022-11-29T08:13:13.077Z,207.50
2022-11-29T08:15:45.383Z,225.83
2022-11-29T08:18:13.267Z,209.53
2022-11-29T08:20:41.717Z,218.10
2022-11-29T08:23:12.514Z,209.10
2022-11-29T08:25:41.700Z,216.20
2022-11-29T08:28:09.441Z,205.77
2022-11-29T08:30:37.299Z,242.13
2022-11-29T08:33:05.882Z,224.00
2022-11-29T08:35:36.029Z,234.93
2022-11-29T08:38:04.947Z,230.27
2022-11-29T08:40:32.723Z,235.57
2022-11-29T08:43:01.759Z,231.53
2022-11-29T08:45:29.577Z,244.77
2022-11-29T08:47:57.306Z,226.03
2022-11-29T08:50:25.631Z,223.27
2022-11-29T08:53:11.050Z,218.67
2022-11-29T08:55:42.491Z,219.53
2022-11-29T08:58:13.486Z,210.83
2022-11-29T09:00:43.334Z,217.60
2022-11-29T09:03:28.644Z,227.23
2022-11-29T09:05:57.482Z,218.97
2022-11-29T09:08:25.182Z,228.77
2022-11-29T09:10:53.273Z,215.40
2022-11-29T09:13:22.330Z,225.80
2022-11-29T09:15:50.005Z,217.57
2022-11-29T09:18:18.028Z,222.87
2022-11-29T09:20:45.943Z,231.23
2022-11-29T09:23:13.931Z,224.13
2022-11-29T09:25:41.680Z,224.17
2022-11-29T09:28:09.507Z,222.70
2022-11-29T09:30:38.592Z,229.37
2022-11-29T09:33:06.403Z,234.00
2022-11-29T09:35:35.101Z,230.20
2022-11-29T09:38:02.787Z,224.90
2022-11-29T09:40:34.866Z,240.60
2022-11-29T09:43:15.047Z,221.50
2022-11-29T09:45:48.189Z,238.67
2022-11-29T09:48:57.445Z,234.73
2022-11-29T09:51:32.321Z,225.63
2022-11-29T09:54:16.514Z,223.10
2022-11-29T09:56:47.342Z,235.23
2022-11-29T09:59:19.636Z,231.80
2022-11-29T10:01:54.664Z,218.63
2022-11-29T10:04:26.810Z,229.73
2022-11-29T10:06:59.926Z,232.07
2022-11-29T10:09:34.076Z,225.60
2022-11-29T10:12:12.664Z,235.00
2022-11-29T10:14:47.165Z,219.97
2022-11-29T10:17:25.672Z,228.33
2022-11-29T10:19:58.446Z,218.03
2022-11-29T10:22:35.679Z,225.80
2022-11-29T10:25:04.233Z,226.23
2022-11-29T10:27:31.902Z,235.03
2022-11-29T10:30:02.366Z,242.63
2022-11-29T10:32:33.256Z,249.00
2022-11-29T10:35:01.596Z,237.43
2022-11-29T10:37:32.627Z,232.80
2022-11-29T10:40:04.526Z,244.03
2022-11-29T10:42:53.051Z,241.37
2022-11-29T10:45:27.800Z,218.83
2022-11-29T10:48:01.788Z,225.37
2022-11-29T10:50:31.863Z,215.43
2022-11-29T10:53:04.906Z,235.43
2022-11-29T10:55:39.551Z,245.80
2022-11-29T10:58:16.975Z,254.40
2022-11-29T11:00:53.365Z,222.10
2022-11-29T11:03:30.354Z,239.33
2022-11-29T11:06:04.562Z,255.57
2022-11-29T11:08:34.100Z,255.17
2022-11-29T11:11:04.483Z,248.73
2022-11-29T11:13:33.496Z,247.93
2022-11-29T11:16:11.667Z,247.50
2022-11-29T11:18:40.703Z,250.47
2022-11-29T11:21:11.644Z,249.10
2022-11-29T11:23:46.333Z,254.80
2022-11-29T11:26:15.591Z,246.93
2022-11-29T11:28:49.281Z,249.93
2022-11-29T11:31:27.534Z,248.57
2022-11-29T11:33:56.799Z,250.60
2022-11-29T11:36:26.009Z,254.90
2022-11-29T11:38:55.912Z,257.50
2022-11-29T11:41:48.520Z,243.40
2022-11-29T11:47:20.950Z,238.93
2022-11-29T11:49:55.295Z,248.53
2022-11-29T11:52:25.911Z,240.63
2022-11-29T11:54:56.267Z,250.07
2022-11-29T11:57:26.292Z,251.40
2022-11-29T11:59:57.266Z,256.70
2022-11-29T12:02:29.808Z,246.00
2022-11-29T12:05:03.461Z,258.90
2022-11-29T12:08:06.803Z,251.57
2022-11-29T12:10:28.534Z,229.98
2022-11-29T12:12:58.200Z,259.43
2022-11-29T12:15:30.386Z,230.30
2022-11-29T12:18:05.170Z,248.07
2022-11-29T12:20:41.527Z,239.37
2022-11-29T12:23:28.130Z,230.03
2022-11-29T12:25:59.893Z,226.90
2022-11-29T12:28:32.781Z,258.97
2022-11-29T12:31:09.116Z,252.33
2022-11-29T12:33:47.444Z,247.53
2022-11-29T12:36:27.035Z,246.60
2022-11-29T12:39:38.721Z,229.37
2022-11-29T12:42:17.475Z,228.00
2022-11-29T12:44:55.689Z,221.73
2022-11-29T12:47:36.011Z,230.70
2022-11-29T12:50:16.337Z,232.37
2022-11-29T12:52:52.252Z,238.60
2022-11-29T12:55:25.445Z,239.60
2022-11-29T12:58:00.907Z,235.00
2022-11-29T13:00:37.054Z,234.57
2022-11-29T13:03:16.441Z,242.97
2022-11-29T13:05:56.628Z,240.53
2022-11-29T13:08:46.278Z,218.23
2022-11-29T13:11:21.659Z,229.90
2022-11-29T13:14:08.245Z,262.63
2022-11-29T13:16:53.020Z,243.23
2022-11-29T13:19:25.962Z,244.10
2022-11-29T13:22:03.367Z,235.83
2022-11-29T13:24:42.732Z,234.27
2022-11-29T13:27:15.823Z,239.50
2022-11-29T13:29:43.993Z,242.67
2022-11-29T13:32:32.422Z,231.87
2022-11-29T13:35:05.657Z,235.57
2022-11-29T13:37:39.917Z,248.13
2022-11-29T13:40:22.663Z,247.27
2022-11-29T13:42:59.439Z,231.73
2022-11-29T13:45:37.366Z,229.00
2022-11-29T13:48:30.784Z,248.77
2022-11-29T13:50:59.256Z,238.43
2022-11-29T13:53:45.227Z,248.83
2022-11-29T13:56:29.645Z,229.27
2022-11-29T13:58:58.921Z,227.23
2022-11-29T14:01:27.042Z,247.20
2022-11-29T14:04:05.568Z,259.93
2022-11-29T14:06:34.757Z,229.77
2022-11-29T14:09:25.767Z,238.50
2022-11-29T14:12:02.616Z,229.93
2022-11-29T14:14:35.928Z,239.30
2022-11-29T14:17:05.583Z,255.50
2022-11-29T14:19:34.614Z,243.97
2022-11-29T14:22:21.056Z,239.20
2022-11-29T14:25:16.334Z,259.17
2022-11-29T14:28:04.740Z,236.03
2022-11-29T14:30:48.995Z,251.00
2022-11-29T14:33:27.888Z,238.93
2022-11-29T14:36:22.117Z,240.80
2022-11-29T14:38:57.861Z,243.50
2022-11-29T14:41:33.987Z,251.07
2022-11-29T14:44:16.005Z,237.90
2022-11-29T14:46:44.227Z,237.63
2022-11-29T14:49:23.574Z,266.40
2022-11-29T14:52:17.499Z,233.47
2022-11-29T14:54:58.848Z,222.93
2022-11-29T14:57:54.907Z,237.83
2022-11-29T15:00:25.862Z,232.60
2022-11-29T15:02:56.582Z,257.47
2022-11-29T15:05:31.921Z,247.63
2022-11-29T15:08:09.571Z,238.67
2022-11-29T15:10:41.118Z,243.53
2022-11-29T15:13:12.902Z,243.07
2022-11-29T15:16:09.280Z,242.83
2022-11-29T15:19:16.485Z,213.27
2022-11-29T15:21:54.095Z,246.13
2022-11-29T15:24:26.800Z,242.23
2022-11-29T15:26:57.454Z,247.27
2022-11-29T15:29:25.918Z,247.57
2022-11-29T15:31:57.709Z,233.67
2022-11-29T15:34:32.234Z,242.60
2022-11-29T15:37:00.364Z,265.67
2022-11-29T15:39:31.181Z,247.27
2022-11-29T15:42:03.845Z,260.20
2022-11-29T15:44:33.053Z,246.85
2022-11-29T15:47:22.067Z,246.57
2022-11-29T15:49:49.812Z,246.20
2022-11-29T15:52:25.492Z,242.00
2022-11-29T15:54:57.705Z,254.40
2022-11-29T15:57:28.985Z,250.27
2022-11-29T16:00:00.014Z,235.63
2022-11-29T16:02:32.522Z,244.80
2022-11-29T16:05:03.992Z,246.97
2022-11-29T16:07:34.079Z,258.20
2022-11-29T16:10:06.534Z,244.70
2022-11-29T16:12:34.373Z,245.53
2022-11-29T16:15:02.400Z,241.83
2022-11-29T16:17:34.215Z,249.80
2022-11-29T16:20:23.333Z,253.97
2022-11-29T16:23:04.901Z,238.93
2022-11-29T16:25:37.523Z,241.00
2022-11-29T16:28:06.187Z,251.37
2022-11-29T16:30:34.217Z,240.23
2022-11-29T16:33:03.809Z,241.47
2022-11-29T16:35:33.694Z,228.57
2022-11-29T16:38:05.008Z,242.07
2022-11-29T16:40:34.681Z,239.90
2022-11-29T16:43:23.777Z,234.17
2022-11-29T16:46:27.755Z,227.23
2022-11-29T16:48:58.741Z,221.13
2022-11-29T16:51:27.996Z,256.77
2022-11-29T16:53:55.826Z,250.00
2022-11-29T16:56:25.357Z,225.60
2022-11-29T16:59:26.040Z,230.80
2022-11-29T17:01:43.617Z,230.90
2022-11-29T17:04:12.786Z,232.27
2022-11-29T17:06:51.744Z,231.37
2022-11-29T17:09:23.882Z,234.13
2022-11-29T17:11:51.515Z,235.60
2022-11-29T17:14:19.408Z,245.07
2022-11-29T17:16:49.120Z,254.73
2022-11-29T17:19:19.674Z,251.43
2022-11-29T17:21:47.502Z,233.90
2022-11-29T17:24:17.663Z,244.47
2022-11-29T17:26:45.724Z,250.57
2022-11-29T17:29:15.052Z,231.67
2022-11-29T17:31:43.988Z,233.93
2022-11-29T17:34:11.720Z,236.70
2022-11-29T17:36:41.842Z,231.73
2022-11-29T17:39:09.667Z,232.80
2022-11-29T17:41:37.621Z,241.80
2022-11-29T17:44:05.593Z,233.00
2022-11-29T17:46:35.289Z,225.83
2022-11-29T17:49:05.249Z,252.63
2022-11-29T17:54:22.848Z,248.73
2022-11-29T17:56:50.531Z,226.67
2022-11-29T17:59:18.325Z,236.73
2022-11-29T18:01:46.969Z,255.33
2022-11-29T18:04:15.010Z,240.27
2022-11-29T18:06:43.447Z,231.33
2022-11-29T18:09:12.794Z,231.07
2022-11-29T18:11:48.098Z,229.53
2022-11-29T18:14:18.362Z,235.63
2022-11-29T18:16:46.396Z,235.17
2022-11-29T18:19:15.956Z,250.70
2022-11-29T18:21:43.985Z,244.87
2022-11-29T18:24:12.075Z,245.53
2022-11-29T18:26:40.749Z,215.50
2022-11-29T18:29:10.285Z,220.07
2022-11-29T18:31:40.714Z,230.73
2022-11-29T18:34:10.310Z,237.47
2022-11-29T18:36:39.735Z,206.43
2022-11-29T18:39:09.597Z,209.33
2022-11-29T18:41:38.131Z,239.63
2022-11-29T18:44:07.999Z,211.67
2022-11-29T18:46:38.134Z,230.90
2022-11-29T18:49:07.470Z,213.57
2022-11-29T18:51:35.947Z,228.30
2022-11-29T18:54:04.655Z,250.03
2022-11-29T18:56:35.328Z,224.20
2022-11-29T18:59:05.126Z,215.97
2022-11-29T19:01:35.195Z,214.07
2022-11-29T19:04:04.363Z,194.93
2022-11-29T19:06:39.253Z,215.80
2022-11-29T19:09:09.671Z,212.63
2022-11-29T19:11:37.372Z,218.23
2022-11-29T19:14:11.023Z,230.90
2022-11-29T19:16:40.421Z,223.20
2022-11-29T19:19:09.711Z,206.03
2022-11-29T19:21:39.526Z,220.57
2022-11-29T19:24:13.772Z,198.20
2022-11-29T19:26:44.090Z,228.93
2022-11-29T19:29:12.467Z,221.53
2022-11-29T19:31:40.236Z,232.07
2022-11-29T19:34:09.250Z,210.47
2022-11-29T19:36:42.763Z,214.90
2022-11-29T19:39:12.764Z,220.50
2022-11-29T19:41:40.846Z,222.17
2022-11-29T19:44:09.472Z,206.30
2022-11-29T19:46:39.005Z,226.13
2022-11-29T19:49:10.204Z,220.83
2022-11-29T19:51:38.593Z,233.93
2022-11-29T19:54:09.336Z,219.97
2022-11-29T19:56:38.148Z,213.83
2022-11-29T19:59:07.100Z,192.53
2022-11-29T20:01:40.939Z,220.13
2022-11-29T20:04:12.848Z,230.77
2022-11-29T20:06:41.179Z,213.80
2022-11-29T20:09:09.103Z,212.83
2022-11-29T20:11:36.863Z,240.07
2022-11-29T20:14:05.986Z,219.47
2022-11-29T20:16:34.603Z,198.97
2022-11-29T20:19:02.598Z,202.40
2022-11-29T20:21:33.840Z,217.47
2022-11-29T20:24:05.578Z,222.50
2022-11-29T20:26:36.502Z,205.13
2022-11-29T20:29:05.018Z,229.03
2022-11-29T20:31:34.226Z,202.00
2022-11-29T20:34:02.796Z,217.07
2022-11-29T20:36:42.674Z,204.97
2022-11-29T20:39:21.799Z,206.77
2022-11-29T20:42:14.076Z,210.47
2022-11-29T20:44:50.454Z,182.97
2022-11-29T20:47:19.662Z,202.83
2022-11-29T20:49:48.336Z,188.13
2022-11-29T20:52:33.802Z,184.57
2022-11-29T20:55:01.455Z,181.97
2022-11-29T20:57:29.250Z,188.93
2022-11-29T20:59:56.893Z,186.43
2022-11-29T21:02:24.741Z,171.37
2022-11-29T21:05:11.377Z,185.33
2022-11-29T21:08:00.714Z,190.83
2022-11-29T21:10:48.906Z,176.83
2022-11-29T21:13:37.985Z,163.47
2022-11-29T21:16:29.199Z,175.43
2022-11-29T21:19:21.192Z,169.43
2022-11-29T21:22:19.742Z,166.30
2022-11-29T21:25:19.068Z,155.90
2022-11-29T21:28:12.527Z,171.20
2022-11-29T21:31:01.071Z,146.00
2022-11-29T21:33:49.463Z,162.27
2022-11-29T21:36:38.265Z,186.67
2022-11-29T21:39:34.069Z,159.70
2022-11-29T21:42:23.370Z,173.17
2022-11-29T21:45:15.568Z,178.87
2022-11-29T21:48:03.688Z,177.63
2022-11-29T21:50:51.631Z,180.33
2022-11-29T21:53:40.630Z,179.67
2022-11-29T21:56:28.540Z,179.30
2022-11-29T21:59:17.991Z,193.50
2022-11-29T22:02:06.054Z,188.37
2022-11-29T22:04:54.115Z,199.70
2022-11-29T22:07:42.135Z,188.73
2022-11-29T22:10:30.105Z,191.40
2022-11-29T22:13:18.896Z,194.03
2022-11-29T22:16:11.432Z,204.37
2022-11-29T22:18:59.410Z,183.23
2022-11-29T22:21:49.615Z,189.67
2022-11-29T22:24:38.416Z,192.13
2022-11-29T22:27:26.342Z,198.63
2022-11-29T22:30:14.525Z,173.77
2022-11-29T22:33:05.767Z,188.07
2022-11-29T22:35:56.842Z,208.70
2022-11-29T22:38:44.847Z,188.03
2022-11-29T22:41:33.451Z,189.97
2022-11-29T22:44:21.399Z,192.90
2022-11-29T22:47:09.384Z,202.13
2022-11-29T22:49:58.686Z,189.30
2022-11-29T22:52:46.624Z,194.67
2022-11-29T22:55:34.585Z,194.03
2022-11-29T22:58:23.178Z,204.37
2022-11-29T23:01:13.945Z,193.20
2022-11-29T23:04:03.968Z,189.40
2022-11-29T23:06:56.352Z,203.70
2022-11-29T23:09:44.506Z,197.77
2022-11-29T23:12:32.453Z,186.07
2022-11-29T23:15:20.362Z,192.37
2022-11-29T23:18:08.287Z,180.90
2022-11-29T23:21:01.423Z,185.70
2022-11-29T23:23:56.048Z,199.47
2022-11-29T23:26:46.692Z,180.13
2022-11-29T23:29:34.677Z,199.03
2022-11-29T23:32:22.635Z,198.03
2022-11-29T23:35:10.751Z,202.27
2022-11-29T23:37:58.683Z,195.77
2022-11-29T23:40:47.972Z,185.80
2022-11-29T23:43:37.757Z,190.60
2022-11-29T23:46:25.756Z,193.43
2022-11-29T23:49:13.688Z,195.77
2022-11-29T23:52:02.594Z,206.87
2022-11-29T23:54:50.790Z,199.23
2022-11-29T23:57:40.067Z,192.17
